createdAt,value
2018-09-10T00:00:33.103Z,15.40
2018-09-10T00:03:04.229Z,15.40
2018-09-10T00:05:35.098Z,15.40
2018-09-10T00:08:06.122Z,15.30
2018-09-10T00:10:38.507Z,15.30
2018-09-10T00:13:10.125Z,15.30
2018-09-10T00:15:42.170Z,15.30
2018-09-10T00:18:13.684Z,15.30
2018-09-10T00:20:44.618Z,15.30
2018-09-10T00:23:15.009Z,15.30
2018-09-10T00:25:46.237Z,15.20
2018-09-10T00:28:17.372Z,15.10
2018-09-10T00:30:47.799Z,15.20
2018-09-10T00:33:18.301Z,15.20
2018-09-10T00:35:48.781Z,15.10
2018-09-10T00:38:20.501Z,15.10
2018-09-10T00:40:51.517Z,15.10
2018-09-10T00:43:23.389Z,15.10
2018-09-10T00:45:53.968Z,15.10
2018-09-10T00:48:25.108Z,15.10
2018-09-10T00:50:55.798Z,15.00
2018-09-10T00:53:26.306Z,15.10
2018-09-10T00:55:56.879Z,15.10
2018-09-10T00:58:27.378Z,15.10
2018-09-10T01:00:57.320Z,15.00
2018-09-10T01:03:27.700Z,15.00
2018-09-10T01:05:58.193Z,14.90
2018-09-10T01:08:28.299Z,14.90
2018-09-10T01:10:58.358Z,14.80
2018-09-10T01:13:28.773Z,14.80
2018-09-10T01:15:59.843Z,14.80
2018-09-10T01:18:29.759Z,14.80
2018-09-10T01:21:00.150Z,14.80
2018-09-10T01:23:30.240Z,14.80
2018-09-10T01:26:00.374Z,14.80
2018-09-10T01:28:30.576Z,14.70
2018-09-10T01:31:01.035Z,14.60
2018-09-10T01:33:35.909Z,14.70
2018-09-10T01:36:05.963Z,14.70
2018-09-10T01:38:36.404Z,14.60
2018-09-10T01:41:06.840Z,14.60
2018-09-10T01:43:37.280Z,14.60
2018-09-10T01:46:07.286Z,14.50
2018-09-10T01:48:37.567Z,14.50
2018-09-10T01:51:08.583Z,14.50
2018-09-10T01:53:39.038Z,14.40
2018-09-10T01:56:10.025Z,14.40
2018-09-10T01:58:41.959Z,14.40
2018-09-10T02:01:12.063Z,14.40
2018-09-10T02:03:42.841Z,14.40
2018-09-10T02:06:12.693Z,14.40
2018-09-10T02:08:43.882Z,14.30
2018-09-10T02:11:14.975Z,14.30
2018-09-10T02:13:45.399Z,14.30
2018-09-10T02:16:16.155Z,14.30
2018-09-10T02:18:47.579Z,14.30
2018-09-10T02:21:17.540Z,14.30
2018-09-10T02:23:47.600Z,14.30
2018-09-10T02:26:17.981Z,14.30
2018-09-10T02:28:49.052Z,14.20
2018-09-10T02:31:19.360Z,14.10
2018-09-10T02:33:49.377Z,14.20
2018-09-10T02:36:19.580Z,14.10
2018-09-10T02:38:51.053Z,14.10
2018-09-10T02:41:21.302Z,14.10
2018-09-10T02:43:51.820Z,14.10
2018-09-10T02:46:22.216Z,14.10
2018-09-10T02:48:53.289Z,14.10
2018-09-10T02:51:23.613Z,14.00
2018-09-10T02:53:53.813Z,14.00
2018-09-10T02:56:24.334Z,14.00
2018-09-10T02:58:55.419Z,14.00
2018-09-10T03:01:26.270Z,13.90
2018-09-10T03:03:56.545Z,13.90
2018-09-10T03:06:26.894Z,13.90
2018-09-10T03:08:57.335Z,13.90
2018-09-10T03:11:27.308Z,13.90
2018-09-10T03:13:57.129Z,13.80
2018-09-10T03:16:27.439Z,13.80
2018-09-10T03:18:57.747Z,13.80
2018-09-10T03:21:28.039Z,13.80
2018-09-10T03:23:58.549Z,13.80
2018-09-10T03:26:29.447Z,13.70
2018-09-10T03:29:00.281Z,13.70
2018-09-10T03:31:31.495Z,13.70
2018-09-10T03:34:02.255Z,13.60
2018-09-10T03:36:33.083Z,13.60
2018-09-10T03:39:07.371Z,13.50
2018-09-10T03:41:39.214Z,13.60
2018-09-10T03:44:10.146Z,13.60
2018-09-10T03:46:40.168Z,13.60
2018-09-10T03:49:10.971Z,13.60
2018-09-10T03:51:41.825Z,13.60
2018-09-10T03:54:12.169Z,13.50
2018-09-10T03:56:43.028Z,13.50
2018-09-10T03:59:13.486Z,13.50
2018-09-10T04:01:45.079Z,13.50
2018-09-10T04:04:16.148Z,13.50
2018-09-10T04:06:47.551Z,13.50
2018-09-10T04:09:18.825Z,13.50
2018-09-10T04:11:49.838Z,13.50
2018-09-10T04:14:21.346Z,13.50
2018-09-10T04:16:51.385Z,13.50
2018-09-10T04:19:21.550Z,13.50
2018-09-10T04:21:51.651Z,13.50
2018-09-10T04:24:21.704Z,13.50
2018-09-10T04:26:52.065Z,13.50
2018-09-10T04:29:22.226Z,13.50
2018-09-10T04:31:53.332Z,13.50
2018-09-10T04:34:24.095Z,13.50
2018-09-10T04:36:56.147Z,13.50
2018-09-10T04:39:27.342Z,13.50
2018-09-10T04:41:58.308Z,13.50
2018-09-10T04:44:29.506Z,13.30
2018-09-10T04:47:00.169Z,13.30
2018-09-10T04:49:30.748Z,13.50
2018-09-10T04:52:01.189Z,13.60
2018-09-10T04:54:32.468Z,13.60
2018-09-10T04:57:03.018Z,13.60
2018-09-10T04:59:33.741Z,13.70
2018-09-10T05:02:04.800Z,13.80
2018-09-10T05:04:35.541Z,13.80
2018-09-10T05:07:05.623Z,13.80
2018-09-10T05:09:36.619Z,13.90
2018-09-10T05:12:07.555Z,14.00
2018-09-10T05:14:38.311Z,14.10
2018-09-10T05:17:08.885Z,14.20
2018-09-10T05:19:39.768Z,14.30
2018-09-10T05:22:11.335Z,14.30
2018-09-10T05:24:42.711Z,14.50
2018-09-10T05:27:13.878Z,14.60
2018-09-10T05:29:46.111Z,14.80
2018-09-10T05:32:18.662Z,15.10
2018-09-10T05:34:51.974Z,15.30
2018-09-10T05:37:29.151Z,15.70
2018-09-10T05:40:05.167Z,16.00
2018-09-10T05:42:39.114Z,16.30
2018-09-10T05:45:13.805Z,16.60
2018-09-10T05:47:46.980Z,16.90
2018-09-10T05:50:17.912Z,17.00
2018-09-10T05:52:49.352Z,17.10
2018-09-10T05:55:19.589Z,17.40
2018-09-10T05:57:50.519Z,17.60
2018-09-10T06:00:21.803Z,17.80
2018-09-10T06:02:52.863Z,17.90
2018-09-10T06:05:24.157Z,17.90
2018-09-10T06:07:55.240Z,17.90
2018-09-10T06:10:26.775Z,18.00
2018-09-10T06:12:57.829Z,17.90
2018-09-10T06:15:28.719Z,18.00
2018-09-10T06:18:00.043Z,18.20
2018-09-10T06:20:31.155Z,18.60
2018-09-10T06:23:01.875Z,19.00
2018-09-10T06:25:33.271Z,19.30
2018-09-10T06:28:04.640Z,19.60
2018-09-10T06:30:35.640Z,20.10
2018-09-10T06:33:06.867Z,20.60
2018-09-10T06:35:37.632Z,21.30
2018-09-10T06:38:08.297Z,22.20
2018-09-10T06:40:39.590Z,23.10
2018-09-10T06:43:10.145Z,23.60
2018-09-10T06:45:40.722Z,24.50
2018-09-10T06:48:10.967Z,25.30
2018-09-10T06:50:41.416Z,25.80
2018-09-10T06:53:12.847Z,26.10
2018-09-10T06:55:43.730Z,25.60
2018-09-10T06:58:14.485Z,25.60
2018-09-10T07:00:45.305Z,26.00
2018-09-10T07:06:03.603Z,27.50
2018-09-10T07:08:35.549Z,27.50
2018-09-10T07:11:14.811Z,28.00
2018-09-10T07:16:57.564Z,28.50
2018-09-10T07:19:33.825Z,28.10
2018-09-10T07:22:12.519Z,28.90
2018-09-10T07:43:25.423Z,32.80
2018-09-10T07:56:03.639Z,33.50
2018-09-10T07:58:49.761Z,33.00
2018-09-10T08:01:27.103Z,33.30
2018-09-10T08:07:15.727Z,34.30
2018-09-10T08:09:47.151Z,34.80
2018-09-10T08:12:18.763Z,34.90
2018-09-10T08:14:49.643Z,35.10
2018-09-10T08:17:20.946Z,36.20
2018-09-10T08:19:52.145Z,36.40
2018-09-10T08:22:23.523Z,36.70
2018-09-10T08:24:55.651Z,36.50
2018-09-10T08:27:25.994Z,37.00
2018-09-10T08:29:58.844Z,38.20
2018-09-10T08:32:28.777Z,38.80
2018-09-10T08:34:58.664Z,39.10
2018-09-10T08:37:29.824Z,39.00
2018-09-10T08:40:00.673Z,40.10
2018-09-10T08:42:31.711Z,40.40
2018-09-10T08:45:02.570Z,40.30
2018-09-10T08:47:34.724Z,40.30
2018-09-10T08:50:07.746Z,39.60
2018-09-10T08:52:39.087Z,39.80
2018-09-10T08:55:10.266Z,39.20
2018-09-10T08:57:40.833Z,38.40
2018-09-10T09:00:12.092Z,38.70
2018-09-10T09:02:42.472Z,39.10
2018-09-10T09:05:13.848Z,39.90
2018-09-10T09:07:44.791Z,40.50
2018-09-10T09:10:15.952Z,40.40
2018-09-10T09:12:47.337Z,40.30
2018-09-10T09:15:18.921Z,41.40
2018-09-10T09:17:50.217Z,40.30
2018-09-10T09:20:21.083Z,40.80
2018-09-10T09:22:52.669Z,41.50
2018-09-10T09:25:24.015Z,41.80
2018-09-10T09:27:55.667Z,41.60
2018-09-10T09:30:26.711Z,40.90
2018-09-10T09:32:57.673Z,40.10
2018-09-10T09:35:33.139Z,39.80
2018-09-10T09:38:09.121Z,39.20
2018-09-10T09:40:45.251Z,40.00
2018-09-10T09:43:21.650Z,40.30
2018-09-10T09:45:57.778Z,40.60
2018-09-10T09:48:28.945Z,40.60
2018-09-10T09:51:00.442Z,40.20
2018-09-10T09:53:31.254Z,40.10
2018-09-10T09:56:02.854Z,40.90
2018-09-10T09:58:33.284Z,41.60
2018-09-10T10:01:08.951Z,42.70
2018-09-10T10:03:44.992Z,43.30
2018-09-10T10:06:15.202Z,43.40
2018-09-10T10:08:46.090Z,43.30
2018-09-10T10:11:16.419Z,43.50
2018-09-10T10:13:46.909Z,43.10
2018-09-10T10:16:17.727Z,42.70
2018-09-10T10:18:48.473Z,42.10
2018-09-10T10:21:18.868Z,42.30
2018-09-10T10:23:49.392Z,42.20
2018-09-10T10:26:20.312Z,42.30
2018-09-10T10:28:51.194Z,42.70
2018-09-10T10:31:21.939Z,43.50
2018-09-10T10:33:57.052Z,44.40
2018-09-10T10:36:28.196Z,45.30
2018-09-10T10:38:58.846Z,45.80
2018-09-10T10:41:29.370Z,44.80
2018-09-10T10:44:00.410Z,45.00
2018-09-10T10:46:30.844Z,45.10
2018-09-10T10:49:00.592Z,45.40
2018-09-10T10:51:30.428Z,46.00
2018-09-10T10:54:01.090Z,45.90
2018-09-10T10:56:32.052Z,46.50
2018-09-10T10:59:02.437Z,45.70
2018-09-10T11:01:33.835Z,46.10
2018-09-10T11:04:05.009Z,46.40
2018-09-10T11:06:34.956Z,45.40
2018-09-10T11:09:06.147Z,44.80
2018-09-10T11:11:36.674Z,45.20
2018-09-10T11:14:07.325Z,45.70
2018-09-10T11:16:37.874Z,45.70
2018-09-10T11:19:08.782Z,46.50
2018-09-10T11:21:38.920Z,45.60
2018-09-10T11:24:13.531Z,45.50
2018-09-10T11:26:44.466Z,45.90
2018-09-10T11:29:15.079Z,46.10
2018-09-10T11:31:53.310Z,46.50
2018-09-10T11:34:24.894Z,45.40
2018-09-10T11:36:56.792Z,45.70
2018-09-10T11:39:27.506Z,44.20
2018-09-10T11:41:58.731Z,43.60
2018-09-10T11:44:29.626Z,43.50
2018-09-10T11:47:01.113Z,44.30
2018-09-10T11:49:32.504Z,44.60
2018-09-10T11:52:03.539Z,42.90
2018-09-10T11:54:34.112Z,42.70
2018-09-10T11:57:05.354Z,43.40
2018-09-10T11:59:37.742Z,44.30
2018-09-10T12:02:10.098Z,45.50
2018-09-10T12:04:41.919Z,46.70
2018-09-10T12:07:13.916Z,47.40
2018-09-10T12:09:45.280Z,47.00
2018-09-10T12:12:17.064Z,44.80
2018-09-10T12:14:47.860Z,44.80
2018-09-10T12:17:18.757Z,45.60
2018-09-10T12:19:49.722Z,45.50
2018-09-10T12:22:19.919Z,45.60
2018-09-10T12:24:50.693Z,45.20
2018-09-10T12:27:22.071Z,44.30
2018-09-10T12:29:52.713Z,43.30
2018-09-10T12:32:23.167Z,42.20
2018-09-10T12:34:53.647Z,41.50
2018-09-10T12:37:24.686Z,42.10
2018-09-10T12:39:55.329Z,42.50
2018-09-10T12:42:26.071Z,42.10
2018-09-10T12:44:56.743Z,42.70
2018-09-10T12:47:27.459Z,42.70
2018-09-10T12:49:58.096Z,41.40
2018-09-10T12:52:28.360Z,41.20
2018-09-10T12:54:59.575Z,41.40
2018-09-10T12:57:30.517Z,41.40
2018-09-10T13:00:01.713Z,41.80
2018-09-10T13:02:32.313Z,42.60
2018-09-10T13:05:03.290Z,42.60
2018-09-10T13:07:34.351Z,43.00
2018-09-10T13:10:05.024Z,43.20
2018-09-10T13:12:35.255Z,41.60
2018-09-10T13:15:06.149Z,41.20
2018-09-10T13:17:37.339Z,40.60
2018-09-10T13:20:07.733Z,39.50
2018-09-10T13:22:39.713Z,39.30
2018-09-10T13:25:10.833Z,39.50
2018-09-10T13:27:41.650Z,39.70
2018-09-10T13:30:12.346Z,39.40
2018-09-10T13:32:42.530Z,39.30
2018-09-10T13:35:13.250Z,39.20
2018-09-10T13:37:43.410Z,39.30
2018-09-10T13:40:14.703Z,39.20
2018-09-10T13:42:46.654Z,39.30
2018-09-10T13:45:17.163Z,39.10
2018-09-10T13:47:47.173Z,39.30
2018-09-10T13:50:17.730Z,38.20
2018-09-10T13:52:48.232Z,37.30
2018-09-10T13:55:19.115Z,36.30
2018-09-10T13:57:50.444Z,36.40
2018-09-10T14:00:21.354Z,36.50
2018-09-10T14:02:51.940Z,36.50
2018-09-10T14:05:22.481Z,36.60
2018-09-10T14:07:52.842Z,36.20
2018-09-10T14:10:23.047Z,35.80
2018-09-10T14:12:54.000Z,35.50
2018-09-10T14:15:24.684Z,35.20
2018-09-10T14:17:55.589Z,34.60
2018-09-10T14:20:27.102Z,34.20
2018-09-10T14:22:58.181Z,34.00
2018-09-10T14:25:29.352Z,34.20
2018-09-10T14:27:59.640Z,34.00
2018-09-10T14:30:30.620Z,33.40
2018-09-10T14:33:01.408Z,33.10
2018-09-10T14:35:31.744Z,33.10
2018-09-10T14:38:02.930Z,33.00
2018-09-10T14:40:33.694Z,33.60
2018-09-10T14:43:04.939Z,34.60
2018-09-10T14:45:36.096Z,34.90
2018-09-10T14:48:07.178Z,35.30
2018-09-10T14:50:37.834Z,35.70
2018-09-10T14:53:08.739Z,36.70
2018-09-10T14:55:38.934Z,37.70
2018-09-10T14:58:10.033Z,37.50
2018-09-10T15:00:40.371Z,37.20
2018-09-10T15:03:11.396Z,37.40
2018-09-10T15:05:42.449Z,37.30
2018-09-10T15:08:13.034Z,36.70
2018-09-10T15:10:43.059Z,35.90
2018-09-10T15:13:13.480Z,35.20
2018-09-10T15:15:44.472Z,34.30
2018-09-10T15:18:16.111Z,34.10
2018-09-10T15:20:47.401Z,33.70
2018-09-10T15:23:18.433Z,33.10
2018-09-10T15:25:48.993Z,32.70
2018-09-10T15:28:19.913Z,32.70
2018-09-10T15:30:51.270Z,32.50
2018-09-10T15:33:22.896Z,32.30
2018-09-10T15:35:53.705Z,32.10
2018-09-10T15:38:25.478Z,32.00
2018-09-10T15:40:56.445Z,31.70
2018-09-10T15:43:27.928Z,31.50
2018-09-10T15:45:58.231Z,31.50
2018-09-10T15:48:29.407Z,31.60
2018-09-10T15:50:59.962Z,31.90
2018-09-10T15:53:30.737Z,32.00
2018-09-10T15:56:01.266Z,32.20
2018-09-10T15:58:32.722Z,32.20
2018-09-10T16:01:03.424Z,32.20
2018-09-10T16:03:34.108Z,32.20
2018-09-10T16:06:04.727Z,32.40
2018-09-10T16:08:35.153Z,32.60
2018-09-10T16:11:05.996Z,32.60
2018-09-10T16:13:36.759Z,32.60
2018-09-10T16:16:08.062Z,32.20
2018-09-10T16:18:39.545Z,31.70
2018-09-10T16:21:10.837Z,31.30
2018-09-10T16:23:41.626Z,31.10
2018-09-10T16:26:12.352Z,30.80
2018-09-10T16:28:42.962Z,30.50
2018-09-10T16:31:13.959Z,30.20
2018-09-10T16:33:44.795Z,29.80
2018-09-10T16:36:15.872Z,29.50
2018-09-10T16:38:46.826Z,29.20
2018-09-10T16:41:18.138Z,29.00
2018-09-10T16:43:48.544Z,28.80
2018-09-10T16:46:19.341Z,28.50
2018-09-10T16:48:50.157Z,28.40
2018-09-10T16:51:20.633Z,28.20
2018-09-10T16:53:51.066Z,27.90
2018-09-10T16:56:23.468Z,27.80
2018-09-10T16:58:53.554Z,27.60
2018-09-10T17:01:24.030Z,27.40
2018-09-10T17:03:54.671Z,27.20
2018-09-10T17:06:29.460Z,26.90
2018-09-10T17:09:08.816Z,26.80
2018-09-10T17:14:24.236Z,26.50
2018-09-10T17:16:55.741Z,26.30
2018-09-10T17:19:27.142Z,26.10
2018-09-10T17:21:58.265Z,26.00
2018-09-10T17:24:28.887Z,25.90
2018-09-10T17:27:00.336Z,25.60
2018-09-10T17:29:31.118Z,25.50
2018-09-10T17:32:01.757Z,25.40
2018-09-10T17:34:32.091Z,25.30
2018-09-10T17:37:02.634Z,25.30
2018-09-10T17:39:34.087Z,25.20
2018-09-10T17:42:05.052Z,25.10
2018-09-10T17:44:35.712Z,25.00
2018-09-10T17:47:06.761Z,25.00
2018-09-10T17:49:37.210Z,25.00
2018-09-10T17:52:07.989Z,24.90
2018-09-10T17:54:38.809Z,24.80
2018-09-10T17:57:09.450Z,24.80
2018-09-10T17:59:41.209Z,24.80
2018-09-10T18:02:11.470Z,24.60
2018-09-10T18:04:42.049Z,24.60
2018-09-10T18:07:12.349Z,24.60
2018-09-10T18:09:42.909Z,24.60
2018-09-10T18:12:13.233Z,24.50
2018-09-10T18:14:44.002Z,24.50
2018-09-10T18:17:14.322Z,24.40
2018-09-10T18:19:45.123Z,24.30
2018-09-10T18:22:15.743Z,24.30
2018-09-10T18:24:59.208Z,24.30
2018-09-10T18:27:38.924Z,24.20
2018-09-10T18:30:36.583Z,24.00
2018-09-10T18:33:41.383Z,23.90
2018-09-10T18:36:14.022Z,23.90
2018-09-10T18:39:07.263Z,23.80
2018-09-10T18:41:54.423Z,23.80
2018-09-10T18:44:37.090Z,23.70
2018-09-10T18:47:19.890Z,23.60
2018-09-10T18:50:15.610Z,23.50
2018-09-10T18:55:53.049Z,23.40
2018-09-10T18:58:34.769Z,23.40
2018-09-10T19:01:21.127Z,23.30
2018-09-10T19:03:56.711Z,23.30
2018-09-10T19:06:36.471Z,23.20
2018-09-10T19:09:16.869Z,23.20
2018-09-10T19:12:04.089Z,23.10
2018-09-10T19:14:42.528Z,23.10
2018-09-10T19:17:14.068Z,23.00
2018-09-10T19:19:51.209Z,22.90
2018-09-10T19:22:22.409Z,22.90
2018-09-10T19:25:10.511Z,22.90
2018-09-10T19:27:59.289Z,22.80
2018-09-10T19:31:02.352Z,22.80
2018-09-10T19:33:57.769Z,22.70
2018-09-10T19:36:56.390Z,22.70
2018-09-10T19:39:27.811Z,22.50
2018-09-10T19:41:58.409Z,22.50
2018-09-10T19:44:29.172Z,22.40
2018-09-10T19:47:00.209Z,22.40
2018-09-10T19:49:34.310Z,22.40
2018-09-10T19:52:06.750Z,22.40
2018-09-10T19:54:39.943Z,22.30
2018-09-10T19:57:11.526Z,22.20
2018-09-10T19:59:42.457Z,22.20
2018-09-10T20:02:14.440Z,22.20
2018-09-10T20:04:45.304Z,22.20
2018-09-10T20:07:16.492Z,22.20
2018-09-10T20:09:47.020Z,22.20
2018-09-10T20:12:17.867Z,22.20
2018-09-10T20:14:48.803Z,22.20
2018-09-10T20:17:19.622Z,22.00
2018-09-10T20:19:50.205Z,21.90
2018-09-10T20:22:21.626Z,21.90
2018-09-10T20:24:52.494Z,21.90
2018-09-10T20:27:23.472Z,21.90
2018-09-10T20:29:54.605Z,21.80
2018-09-10T20:32:25.364Z,21.80
2018-09-10T20:34:55.881Z,21.70
2018-09-10T20:37:27.622Z,21.70
2018-09-10T20:39:59.042Z,21.60
2018-09-10T20:42:29.260Z,21.60
2018-09-10T20:45:01.485Z,21.50
2018-09-10T20:47:32.875Z,21.50
2018-09-10T20:50:03.652Z,21.50
2018-09-10T20:52:34.658Z,21.40
2018-09-10T20:55:04.608Z,21.40
2018-09-10T20:57:34.850Z,21.40
2018-09-10T21:00:05.145Z,21.40
2018-09-10T21:02:36.041Z,21.40
2018-09-10T21:05:06.775Z,21.30
2018-09-10T21:07:37.124Z,21.40
2018-09-10T21:10:07.663Z,21.40
2018-09-10T21:12:37.883Z,21.40
2018-09-10T21:15:08.506Z,21.30
2018-09-10T21:17:38.925Z,21.30
2018-09-10T21:20:09.705Z,21.30
2018-09-10T21:22:39.982Z,21.30
2018-09-10T21:25:10.741Z,21.20
2018-09-10T21:27:41.882Z,21.20
2018-09-10T21:30:12.157Z,21.20
2018-09-10T21:32:42.925Z,21.10
2018-09-10T21:35:13.842Z,21.00
2018-09-10T21:37:44.390Z,21.00
2018-09-10T21:40:14.838Z,20.90
2018-09-10T21:42:45.837Z,20.90
2018-09-10T21:45:16.283Z,20.80
2018-09-10T21:47:47.737Z,20.80
2018-09-10T21:50:18.257Z,20.80
2018-09-10T21:52:48.541Z,20.70
2018-09-10T21:55:18.563Z,20.70
2018-09-10T21:57:50.237Z,20.70
2018-09-10T22:00:21.752Z,20.70
2018-09-10T22:02:52.602Z,20.70
2018-09-10T22:05:23.945Z,20.70
2018-09-10T22:07:55.344Z,20.60
2018-09-10T22:10:26.164Z,20.60
2018-09-10T22:12:57.458Z,20.50
2018-09-10T22:15:27.837Z,20.50
2018-09-10T22:17:59.532Z,20.40
2018-09-10T22:20:30.993Z,20.40
2018-09-10T22:23:02.271Z,20.30
2018-09-10T22:25:33.300Z,20.30
2018-09-10T22:28:05.192Z,20.30
2018-09-10T22:30:36.284Z,20.30
2018-09-10T22:33:07.338Z,20.20
2018-09-10T22:35:38.142Z,20.30
2018-09-10T22:38:09.291Z,20.20
2018-09-10T22:40:40.397Z,20.20
2018-09-10T22:43:11.121Z,20.20
2018-09-10T22:45:42.477Z,20.10
2018-09-10T22:48:12.873Z,20.20
2018-09-10T22:50:43.814Z,20.20
2018-09-10T22:53:14.383Z,20.20
2018-09-10T22:55:45.319Z,20.20
2018-09-10T22:58:16.416Z,20.20
2018-09-10T23:00:46.990Z,20.20
2018-09-10T23:03:18.185Z,20.20
2018-09-10T23:05:49.150Z,20.20
2018-09-10T23:08:19.603Z,20.20
2018-09-10T23:10:49.529Z,20.30
2018-09-10T23:13:20.128Z,20.30
2018-09-10T23:15:52.137Z,20.30
2018-09-10T23:18:22.437Z,20.30
2018-09-10T23:20:53.862Z,20.30
2018-09-10T23:23:24.211Z,20.30
2018-09-10T23:25:55.550Z,20.30
2018-09-10T23:28:26.245Z,20.20
2018-09-10T23:30:56.670Z,20.00
2018-09-10T23:33:27.374Z,19.80
2018-09-10T23:35:57.569Z,19.80
2018-09-10T23:38:28.719Z,19.90
2018-09-10T23:40:58.965Z,20.00
2018-09-10T23:43:29.412Z,20.00
2018-09-10T23:46:00.014Z,20.10
2018-09-10T23:48:30.790Z,20.10
2018-09-10T23:51:01.367Z,20.20
2018-09-10T23:53:31.983Z,20.10
2018-09-10T23:56:02.690Z,20.10
2018-09-10T23:58:32.712Z,20.20
